Time;durP1;ratioP1;P1;durP2;ratioP2;P2;SDS_P1;SDS_P2;PMS_P1;PMS_P2;Temp;Humidity;BMP_temperature;BMP_pressure;BME280_temperature;BME280_humidity;BME280_pressure;Samples;Min_cycle;Max_cycle;Signal;HPM_P1;HPM_P2
2022/04/11 00:02:00;;;;;;;5.18;3.72;;;1.30;99.90;;;;;;5005304;28;20044;-34
2022/04/11 00:04:27;;;;;;;6.80;3.85;;;1.30;99.90;;;;;;5008306;28;20018;-35
2022/04/11 00:06:53;;;;;;;7.60;3.83;;;1.30;99.90;;;;;;5009864;28;20521;-33
2022/04/11 00:09:19;;;;;;;5.18;4.65;;;1.30;99.90;;;;;;5004252;28;20030;-33
2022/04/11 00:11:45;;;;;;;4.90;4.22;;;1.20;99.90;;;;;;5002419;28;20026;-34
2022/04/11 00:14:10;;;;;;;5.15;3.92;;;1.20;99.90;;;;;;5007856;28;20101;-35
2022/04/11 00:16:36;;;;;;;5.85;3.80;;;1.20;99.90;;;;;;4998862;28;20109;-34
2022/04/11 00:19:03;;;;;;;4.95;3.97;;;1.20;99.90;;;;;;5007024;28;20112;-34
2022/04/11 00:21:29;;;;;;;4.70;4.22;;;1.20;99.90;;;;;;5007321;28;20034;-34
2022/04/11 00:23:54;;;;;;;5.43;4.28;;;1.20;99.90;;;;;;5006328;28;20730;-34
2022/04/11 00:26:20;;;;;;;5.05;3.80;;;1.20;99.90;;;;;;5008470;28;20033;-34
2022/04/11 00:28:45;;;;;;;6.28;3.85;;;1.20;99.90;;;;;;5008296;28;20042;-34
2022/04/11 00:31:11;;;;;;;4.47;3.78;;;1.20;99.90;;;;;;5004574;28;20609;-34
2022/04/11 00:33:36;;;;;;;6.70;3.90;;;1.30;99.90;;;;;;5007895;28;20018;-35
2022/04/11 00:36:02;;;;;;;4.90;3.58;;;1.20;99.90;;;;;;5008843;28;20044;-33
2022/04/11 00:38:28;;;;;;;4.25;3.83;;;1.20;99.90;;;;;;5000395;28;20038;-35
2022/04/11 00:40:53;;;;;;;7.53;4.80;;;1.20;99.90;;;;;;5007919;28;20038;-35
2022/04/11 00:43:36;;;;;;;3.75;3.35;;;1.20;99.90;;;;;;5007006;28;20711;-35
2022/04/11 00:46:03;;;;;;;4.80;4.00;;;1.10;99.90;;;;;;5006194;28;20634;-36
2022/04/11 00:48:29;;;;;;;4.50;3.58;;;1.10;99.90;;;;;;5003734;28;20022;-34
2022/04/11 00:51:02;;;;;;;6.57;4.35;;;1.00;99.90;;;;;;5007889;28;20653;-34
2022/04/11 00:53:31;;;;;;;5.63;3.70;;;1.00;99.90;;;;;;5005595;28;20018;-33
2022/04/11 00:55:58;;;;;;;4.05;3.30;;;0.90;99.90;;;;;;5002524;28;20029;-35
2022/04/11 00:58:24;;;;;;;6.70;4.13;;;0.90;99.90;;;;;;5003007;28;20056;-35
2022/04/11 01:00:51;;;;;;;5.85;4.20;;;1.00;99.90;;;;;;5005801;28;20121;-34
2022/04/11 01:03:17;;;;;;;6.05;3.55;;;1.00;99.90;;;;;;5005034;28;20026;-33
2022/04/11 01:05:43;;;;;;;4.70;3.85;;;1.00;99.90;;;;;;5006696;28;20073;-36
2022/04/11 01:08:10;;;;;;;3.85;3.03;;;0.90;99.90;;;;;;5002320;28;20062;-35
2022/04/11 01:10:36;;;;;;;3.90;3.05;;;0.90;99.90;;;;;;5006900;28;20033;-35
2022/04/11 01:13:02;;;;;;;3.50;3.15;;;0.80;99.90;;;;;;5002690;28;20506;-36
2022/04/11 01:15:28;;;;;;;5.60;3.88;;;0.80;99.90;;;;;;5004535;28;20022;-34
2022/04/11 01:17:54;;;;;;;4.80;3.17;;;0.80;99.90;;;;;;5006596;28;20049;-34
2022/04/11 01:20:20;;;;;;;3.67;3.38;;;0.80;99.90;;;;;;5006527;28;20030;-35
2022/04/11 01:22:47;;;;;;;3.58;2.88;;;0.80;99.90;;;;;;5003524;28;20168;-34
2022/04/11 01:25:14;;;;;;;3.75;3.00;;;0.80;99.90;;;;;;5010942;28;20041;-35
2022/04/11 01:27:40;;;;;;;2.80;2.47;;;0.70;99.90;;;;;;5008160;28;20076;-34
2022/04/11 01:30:08;;;;;;;3.42;2.92;;;0.70;99.90;;;;;;5006170;28;20104;-34
2022/04/11 01:32:35;;;;;;;3.22;2.92;;;0.60;99.90;;;;;;5008044;28;20896;-35
2022/04/11 01:35:01;;;;;;;4.38;3.33;;;0.60;99.90;;;;;;5004451;28;20069;-35
2022/04/11 01:37:27;;;;;;;4.95;3.88;;;0.50;99.90;;;;;;5005784;28;20065;-35
2022/04/11 01:39:53;;;;;;;3.42;3.13;;;0.50;99.90;;;;;;5007871;28;20084;-33
2022/04/11 01:42:18;;;;;;;4.18;3.22;;;0.30;99.90;;;;;;5004154;28;20521;-36
2022/04/11 01:44:44;;;;;;;3.03;2.35;;;0.30;99.90;;;;;;5011686;28;20057;-33
2022/04/11 01:47:10;;;;;;;3.50;2.85;;;0.40;99.90;;;;;;5008340;28;20035;-33
2022/04/11 01:49:39;;;;;;;3.90;3.33;;;0.40;99.90;;;;;;5009120;28;20057;-33
2022/04/11 01:52:05;;;;;;;4.40;3.97;;;0.40;99.90;;;;;;5008949;28;20066;-34
2022/04/11 01:54:30;;;;;;;3.80;3.13;;;0.50;99.90;;;;;;4990814;28;20442;-35
2022/04/11 01:56:56;;;;;;;5.25;4.40;;;0.50;99.90;;;;;;5010098;28;20073;-35
2022/04/11 01:59:22;;;;;;;5.53;3.85;;;0.50;99.90;;;;;;5007434;28;20135;-35
2022/04/11 02:01:48;;;;;;;9.85;3.53;;;0.50;99.90;;;;;;5006842;28;20037;-34
2022/04/11 02:04:13;;;;;;;7.05;4.22;;;0.40;99.90;;;;;;5007605;28;20030;-34
2022/04/11 02:06:39;;;;;;;4.63;3.70;;;0.40;99.90;;;;;;5007389;28;20038;-35
2022/04/11 02:09:05;;;;;;;6.95;4.20;;;0.50;99.90;;;;;;5008263;28;20506;-34
2022/04/11 02:11:30;;;;;;;5.63;4.03;;;0.50;99.90;;;;;;5008480;28;20032;-34
2022/04/11 02:13:56;;;;;;;6.18;4.20;;;0.40;99.90;;;;;;5009928;28;20799;-35
2022/04/11 02:16:23;;;;;;;5.07;4.10;;;0.40;99.90;;;;;;5010089;28;20022;-35
2022/04/11 02:18:49;;;;;;;3.33;3.03;;;0.40;99.90;;;;;;5008714;28;20073;-35
2022/04/11 02:21:15;;;;;;;4.05;3.08;;;0.40;99.90;;;;;;5007547;28;20038;-35
2022/04/11 02:23:41;;;;;;;3.80;3.17;;;0.40;99.90;;;;;;5006304;28;20049;-34
2022/04/11 02:26:07;;;;;;;3.22;2.97;;;0.30;99.90;;;;;;5007416;28;20053;-34
2022/04/11 02:28:32;;;;;;;3.97;3.00;;;0.20;99.90;;;;;;5011837;28;20486;-33
2022/04/11 02:30:58;;;;;;;5.35;3.70;;;0.10;99.90;;;;;;5002975;28;20038;-35
2022/04/11 02:33:24;;;;;;;4.78;3.50;;;0.10;99.90;;;;;;5002489;28;20037;-35
2022/04/11 02:35:50;;;;;;;6.97;3.50;;;0.20;99.90;;;;;;5006471;28;21566;-35
2022/04/11 02:38:16;;;;;;;5.72;4.43;;;0.20;99.90;;;;;;5010878;28;20026;-34
2022/04/11 02:40:41;;;;;;;5.57;3.75;;;0.10;99.90;;;;;;5002881;28;20030;-36
2022/04/11 02:43:07;;;;;;;3.10;2.90;;;0.10;99.90;;;;;;5001103;28;20505;-35
2022/04/11 02:45:33;;;;;;;2.92;2.67;;;0.10;99.90;;;;;;5006198;28;20119;-34
2022/04/11 02:47:58;;;;;;;2.78;2.50;;;0.10;99.90;;;;;;5007903;28;20172;-36
2022/04/11 02:50:24;;;;;;;3.97;3.03;;;0.10;99.90;;;;;;5004834;28;20022;-34
2022/04/11 02:52:50;;;;;;;3.63;3.33;;;0.00;99.90;;;;;;5002002;28;20018;-34
2022/04/11 02:55:15;;;;;;;4.50;3.38;;;0.10;99.90;;;;;;5006669;28;20030;-34
2022/04/11 02:57:41;;;;;;;4.78;3.95;;;0.10;99.90;;;;;;5003150;28;20029;-35
2022/04/11 03:00:10;;;;;;;4.78;3.92;;;0.20;99.90;;;;;;5007244;28;20487;-34
2022/04/11 03:02:36;;;;;;;5.85;4.32;;;0.20;99.90;;;;;;5007194;28;20117;-34
2022/04/11 03:05:02;;;;;;;5.68;4.93;;;0.20;99.90;;;;;;5006473;28;20539;-35
2022/04/11 03:07:27;;;;;;;3.97;3.30;;;0.20;99.90;;;;;;5002449;28;20036;-35
2022/04/11 03:09:54;;;;;;;4.05;3.55;;;0.10;99.90;;;;;;5007262;28;20022;-36
2022/04/11 03:12:20;;;;;;;3.97;3.53;;;0.10;99.90;;;;;;5007668;28;20030;-35
2022/04/11 03:14:50;;;;;;;3.22;2.92;;;0.10;99.90;;;;;;5006050;28;20041;-34
2022/04/11 03:17:16;;;;;;;3.58;3.28;;;0.10;99.90;;;;;;5005013;28;20176;-35
2022/04/11 03:19:42;;;;;;;3.75;2.80;;;0.00;99.90;;;;;;5003577;28;20033;-36
2022/04/11 03:22:09;;;;;;;2.92;2.70;;;0.00;99.90;;;;;;5006335;28;20434;-36
2022/04/11 03:24:35;;;;;;;2.75;2.55;;;-0.10;99.90;;;;;;5005427;28;20022;-34
2022/04/11 03:27:01;;;;;;;2.25;2.15;;;-0.20;99.90;;;;;;5005963;28;20509;-35
2022/04/11 03:29:27;;;;;;;2.13;1.92;;;-0.20;99.90;;;;;;5008965;28;20093;-34
2022/04/11 03:31:52;;;;;;;2.78;2.58;;;-0.30;99.90;;;;;;5005737;28;20134;-34
2022/04/11 03:34:18;;;;;;;3.55;2.50;;;-0.40;99.90;;;;;;5004498;28;20024;-35
2022/04/11 03:36:44;;;;;;;4.05;3.33;;;-0.40;99.90;;;;;;5011745;28;20041;-35
2022/04/11 03:39:09;;;;;;;5.95;3.13;;;-0.40;99.90;;;;;;5005581;28;20164;-35
2022/04/11 03:41:35;;;;;;;3.10;2.80;;;-0.50;99.90;;;;;;5006773;28;20034;-35
2022/04/11 03:44:01;;;;;;;3.25;3.05;;;-0.40;99.90;;;;;;5004886;28;20017;-35
2022/04/11 03:46:28;;;;;;;3.90;3.33;;;-0.50;99.90;;;;;;5007023;28;20095;-36
2022/04/11 03:48:54;;;;;;;2.83;2.63;;;-0.40;99.90;;;;;;5006162;28;20029;-35
2022/04/11 03:51:20;;;;;;;3.47;2.67;;;-0.40;99.90;;;;;;5001382;28;20566;-34
2022/04/11 03:53:47;;;;;;;2.92;2.63;;;-0.40;99.90;;;;;;5003819;28;20024;-36
2022/04/11 03:56:14;;;;;;;4.60;3.50;;;-0.30;99.90;;;;;;5010275;28;20049;-36
2022/04/11 03:58:40;;;;;;;3.97;3.15;;;-0.20;99.90;;;;;;5006046;28;20025;-34
2022/04/11 04:01:06;;;;;;;3.47;3.15;;;-0.20;99.90;;;;;;5006273;28;20490;-35
2022/04/11 04:03:32;;;;;;;5.45;3.42;;;-0.30;99.90;;;;;;5006824;28;20033;-36
2022/04/11 04:05:57;;;;;;;4.13;3.35;;;-0.30;99.90;;;;;;5006220;28;20613;-34
2022/04/11 04:08:23;;;;;;;5.10;4.00;;;-0.30;99.90;;;;;;5003938;28;20491;-34
2022/04/11 04:10:49;;;;;;;5.80;4.20;;;-0.40;99.90;;;;;;5004888;28;20030;-35
2022/04/11 04:13:15;;;;;;;5.15;3.97;;;-0.50;99.90;;;;;;5003289;28;20152;-35
2022/04/11 04:15:42;;;;;;;5.10;4.30;;;-0.50;99.90;;;;;;5005398;28;20026;-36
2022/04/11 04:18:07;;;;;;;6.47;4.38;;;-0.40;99.90;;;;;;5005573;28;21040;-36
2022/04/11 04:20:33;;;;;;;5.70;4.25;;;-0.50;99.90;;;;;;5006424;28;20052;-36
2022/04/11 04:22:59;;;;;;;5.53;4.43;;;-0.50;99.90;;;;;;5003914;28;20174;-34
2022/04/11 04:25:24;;;;;;;6.35;4.18;;;-0.50;99.90;;;;;;5007702;28;20021;-36
2022/04/11 04:27:50;;;;;;;4.05;3.63;;;-0.50;99.90;;;;;;5007203;28;20624;-34
2022/04/11 04:30:16;;;;;;;7.68;4.40;;;-0.50;99.90;;;;;;5009337;28;20037;-35
2022/04/11 04:32:42;;;;;;;6.43;3.50;;;-0.40;99.90;;;;;;5005073;28;20053;-35
2022/04/11 04:35:08;;;;;;;5.30;4.68;;;-0.40;99.90;;;;;;5004705;28;20029;-35
2022/04/11 04:37:34;;;;;;;8.80;5.43;;;-0.30;99.90;;;;;;5004055;28;20132;-35
2022/04/11 04:40:00;;;;;;;5.03;4.35;;;-0.30;99.90;;;;;;5003399;28;20026;-34
2022/04/11 04:42:26;;;;;;;7.07;4.15;;;-0.30;99.90;;;;;;5007684;28;20079;-35
2022/04/11 04:44:53;;;;;;;7.10;4.38;;;-0.30;99.90;;;;;;4999386;28;20042;-34
2022/04/11 04:47:19;;;;;;;6.07;4.28;;;-0.20;99.90;;;;;;5007736;28;20022;-35
2022/04/11 04:49:45;;;;;;;7.32;4.50;;;-0.20;99.90;;;;;;5005988;28;20101;-34
2022/04/11 04:52:11;;;;;;;6.75;5.68;;;-0.20;99.90;;;;;;5004486;28;20037;-34
2022/04/11 04:54:37;;;;;;;6.93;4.60;;;-0.20;99.90;;;;;;5002606;28;20029;-36
2022/04/11 04:57:04;;;;;;;5.85;4.65;;;-0.10;99.90;;;;;;5009452;28;20475;-36
2022/04/11 04:59:30;;;;;;;7.55;4.15;;;-0.10;99.90;;;;;;5009768;28;20030;-33
2022/04/11 05:01:56;;;;;;;5.80;5.30;;;0.00;99.90;;;;;;5008099;28;20041;-35
2022/04/11 05:04:21;;;;;;;5.65;5.03;;;0.00;99.90;;;;;;5008399;28;20492;-35
2022/04/11 05:06:47;;;;;;;7.50;4.85;;;0.00;99.90;;;;;;5009425;28;20053;-34
2022/04/11 05:09:13;;;;;;;9.82;6.03;;;0.00;99.90;;;;;;5010279;28;20026;-36
2022/04/11 05:11:39;;;;;;;9.27;4.72;;;-0.10;99.90;;;;;;5006879;28;20045;-35
2022/04/11 05:14:05;;;;;;;8.57;5.50;;;-0.10;99.90;;;;;;5009431;28;20061;-35
2022/04/11 05:16:30;;;;;;;7.55;4.72;;;-0.10;99.90;;;;;;5006969;28;20037;-34
2022/04/11 05:18:56;;;;;;;8.23;5.88;;;-0.10;99.90;;;;;;5010298;28;20079;-35
2022/04/11 05:21:22;;;;;;;5.75;4.47;;;0.00;99.90;;;;;;5005333;28;20439;-33
2022/04/11 05:23:48;;;;;;;7.38;4.55;;;0.00;99.90;;;;;;5009131;28;20355;-34
2022/04/11 05:26:14;;;;;;;10.35;5.22;;;0.10;99.90;;;;;;5008673;28;20399;-33
2022/04/11 05:28:39;;;;;;;10.02;5.75;;;0.20;99.90;;;;;;5005588;28;20054;-34
2022/04/11 05:31:05;;;;;;;8.80;5.20;;;0.30;99.90;;;;;;5005116;28;20133;-35
2022/04/11 05:33:30;;;;;;;10.55;6.82;;;0.40;99.90;;;;;;5007500;28;20029;-35
2022/04/11 05:35:56;;;;;;;9.02;5.45;;;0.40;99.90;;;;;;5010169;28;20040;-34
2022/04/11 05:38:22;;;;;;;7.65;5.72;;;0.40;99.90;;;;;;5010082;28;20033;-34
2022/04/11 05:40:48;;;;;;;10.98;6.10;;;0.50;99.90;;;;;;5008116;28;20024;-34
2022/04/11 05:43:14;;;;;;;12.82;6.15;;;0.50;99.90;;;;;;5008687;28;20026;-35
2022/04/11 05:45:41;;;;;;;11.82;5.47;;;0.50;99.90;;;;;;5009926;28;20038;-35
2022/04/11 05:48:07;;;;;;;8.93;5.88;;;0.60;99.90;;;;;;5006251;28;20018;-34
2022/04/11 05:50:33;;;;;;;8.95;5.85;;;0.60;99.90;;;;;;5006054;28;20502;-35
2022/04/11 05:53:00;;;;;;;15.60;6.68;;;0.60;99.90;;;;;;5003582;28;20053;-35
2022/04/11 05:55:26;;;;;;;10.77;6.70;;;0.60;99.90;;;;;;5007793;28;20041;-35
2022/04/11 05:57:53;;;;;;;11.80;6.28;;;0.70;99.90;;;;;;5011963;28;20073;-34
2022/04/11 06:00:19;;;;;;;8.18;6.30;;;0.70;99.90;;;;;;5011440;28;20962;-35
2022/04/11 06:02:45;;;;;;;8.85;6.40;;;0.80;99.90;;;;;;5009913;28;20030;-35
2022/04/11 06:05:10;;;;;;;8.80;6.60;;;0.90;99.90;;;;;;5008164;28;20030;-34
2022/04/11 06:07:36;;;;;;;14.20;7.13;;;0.90;99.90;;;;;;4988961;28;20564;-34
2022/04/11 06:10:03;;;;;;;12.65;7.45;;;0.90;99.90;;;;;;5006466;28;20022;-34
2022/04/11 06:12:29;;;;;;;10.57;7.55;;;1.00;99.90;;;;;;5005625;28;20022;-34
2022/04/11 06:14:54;;;;;;;13.48;7.43;;;1.00;99.90;;;;;;5009311;28;20052;-34
2022/04/11 06:17:24;;;;;;;12.23;7.18;;;1.00;99.90;;;;;;5005910;28;20045;-35
2022/04/11 06:19:53;;;;;;;10.68;6.95;;;1.10;99.90;;;;;;5003920;28;20046;-35
2022/04/11 06:22:19;;;;;;;12.18;7.82;;;1.20;99.90;;;;;;5002136;28;20112;-33
2022/04/11 06:24:46;;;;;;;10.77;7.93;;;1.20;99.90;;;;;;5005543;28;20033;-34
2022/04/11 06:27:12;;;;;;;11.98;7.18;;;1.30;99.90;;;;;;5010110;28;20041;-34
2022/04/11 06:29:38;;;;;;;13.82;8.23;;;1.40;99.90;;;;;;5009633;28;20498;-34
2022/04/11 06:32:05;;;;;;;10.85;7.97;;;1.60;99.90;;;;;;5005515;28;20056;-34
2022/04/11 06:34:35;;;;;;;9.38;6.40;;;1.80;99.90;;;;;;5009672;28;20458;-33
2022/04/11 06:37:01;;;;;;;11.13;6.75;;;2.00;99.90;;;;;;5009026;28;20664;-33
2022/04/11 06:39:27;;;;;;;8.90;5.97;;;2.20;99.90;;;;;;5010341;28;20212;-35
2022/04/11 06:41:53;;;;;;;10.48;6.47;;;2.40;99.90;;;;;;5006994;28;20108;-35
2022/04/11 06:44:19;;;;;;;9.30;6.35;;;2.50;99.90;;;;;;5003651;28;20448;-33
2022/04/11 06:46:45;;;;;;;7.30;5.45;;;2.70;99.90;;;;;;5006612;28;20499;-35
2022/04/11 06:49:11;;;;;;;9.23;5.97;;;3.00;99.90;;;;;;5007530;28;20060;-35
2022/04/11 06:51:36;;;;;;;9.35;6.53;;;3.20;99.90;;;;;;5007245;28;20050;-34
2022/04/11 06:54:02;;;;;;;7.85;5.40;;;3.30;99.90;;;;;;5007249;28;20026;-34
2022/04/11 06:56:28;;;;;;;8.30;5.88;;;3.50;99.90;;;;;;5008924;28;20022;-34
2022/04/11 06:58:53;;;;;;;7.40;5.80;;;3.60;99.90;;;;;;5008990;28;20054;-33
2022/04/11 07:01:19;;;;;;;5.28;4.78;;;3.80;99.90;;;;;;5005101;28;20038;-36
2022/04/11 07:03:44;;;;;;;5.18;3.78;;;4.00;99.90;;;;;;5009960;28;20034;-34
2022/04/11 07:06:10;;;;;;;5.70;4.72;;;4.20;99.90;;;;;;5006601;28;20514;-34
2022/04/11 07:08:36;;;;;;;5.53;4.43;;;4.40;99.90;;;;;;5006822;28;20057;-36
2022/04/11 07:11:04;;;;;;;5.80;4.18;;;4.70;99.90;;;;;;5004106;28;20037;-35
2022/04/11 07:13:30;;;;;;;5.15;4.15;;;4.60;99.90;;;;;;5005226;28;20061;-34
2022/04/11 07:15:56;;;;;;;6.03;4.78;;;4.70;99.90;;;;;;5008455;28;20034;-34
2022/04/11 07:18:26;;;;;;;6.00;4.43;;;4.80;99.90;;;;;;5000138;28;20050;-35
2022/04/11 07:20:51;;;;;;;6.72;3.78;;;4.90;99.90;;;;;;5010057;28;20056;-35
2022/04/11 07:23:17;;;;;;;7.47;3.95;;;4.90;99.90;;;;;;5007035;28;20030;-35
2022/04/11 07:25:43;;;;;;;5.22;3.72;;;5.00;99.90;;;;;;5003842;28;20038;-35
2022/04/11 07:28:08;;;;;;;6.20;4.32;;;5.10;99.90;;;;;;5007313;28;20026;-36
2022/04/11 07:30:34;;;;;;;4.97;4.03;;;5.10;99.90;;;;;;5005406;28;20049;-35
2022/04/11 07:33:00;;;;;;;4.68;4.20;;;5.30;99.90;;;;;;5005934;28;20033;-34
2022/04/11 07:35:26;;;;;;;5.97;3.30;;;5.50;99.90;;;;;;4989974;28;20049;-35
2022/04/11 07:37:51;;;;;;;5.78;4.10;;;5.40;99.90;;;;;;5003380;28;20031;-35
2022/04/11 07:40:17;;;;;;;7.78;3.97;;;5.50;99.90;;;;;;4990323;28;20026;-35
2022/04/11 07:42:43;;;;;;;3.63;3.28;;;5.60;99.90;;;;;;5007832;28;20045;-35
2022/04/11 07:45:09;;;;;;;4.47;3.70;;;5.70;99.90;;;;;;5005042;28;20033;-35
2022/04/11 07:47:35;;;;;;;5.15;3.20;;;5.70;99.90;;;;;;5007760;28;20034;-35
2022/04/11 07:50:00;;;;;;;5.22;3.63;;;5.90;99.90;;;;;;5008221;28;20077;-35
2022/04/11 07:52:26;;;;;;;6.80;3.80;;;6.10;99.90;;;;;;5002485;28;20036;-35
2022/04/11 07:54:52;;;;;;;5.07;4.03;;;6.30;99.90;;;;;;5002948;28;20108;-36
2022/04/11 07:57:18;;;;;;;4.03;3.60;;;6.40;99.90;;;;;;5003851;28;20049;-34
2022/04/11 07:59:44;;;;;;;4.55;3.55;;;6.50;99.90;;;;;;5008441;28;20255;-35
2022/04/11 08:02:10;;;;;;;4.80;3.38;;;6.50;99.90;;;;;;5004547;28;20038;-36
2022/04/11 08:04:35;;;;;;;4.38;3.42;;;6.60;99.90;;;;;;5003975;28;20033;-36
2022/04/11 08:07:02;;;;;;;3.65;3.00;;;6.70;99.20;;;;;;5003261;28;20030;-35
2022/04/11 08:09:28;;;;;;;2.97;2.67;;;6.70;97.90;;;;;;5000668;28;20060;-35
2022/04/11 08:11:54;;;;;;;4.15;2.55;;;6.90;93.20;;;;;;5003940;28;20080;-35
2022/04/11 08:14:20;;;;;;;3.47;2.95;;;6.90;92.50;;;;;;5004899;28;20495;-35
2022/04/11 08:16:46;;;;;;;5.13;3.17;;;7.10;94.10;;;;;;5004111;28;20076;-35
2022/04/11 08:19:12;;;;;;;2.95;2.65;;;7.10;92.70;;;;;;4987001;28;20842;-35
2022/04/11 08:21:38;;;;;;;3.95;3.17;;;7.20;88.30;;;;;;5005259;28;20052;-35
2022/04/11 08:24:04;;;;;;;4.22;2.95;;;7.20;90.00;;;;;;5002737;28;20091;-34
2022/04/11 08:26:29;;;;;;;3.30;2.88;;;7.30;95.50;;;;;;5004465;28;20483;-35
2022/04/11 08:28:55;;;;;;;4.10;3.25;;;7.50;94.30;;;;;;5006773;28;20299;-35
2022/04/11 08:31:21;;;;;;;4.82;3.00;;;7.80;94.40;;;;;;5005014;28;20157;-35
2022/04/11 08:33:46;;;;;;;4.93;3.50;;;7.70;92.30;;;;;;5003826;28;20064;-35
2022/04/11 08:36:12;;;;;;;4.57;3.20;;;7.80;94.50;;;;;;5003316;28;20061;-35
2022/04/11 08:38:38;;;;;;;5.10;2.97;;;8.00;87.90;;;;;;5002777;28;20026;-35
2022/04/11 08:41:04;;;;;;;6.03;3.45;;;7.90;91.50;;;;;;5005355;28;20044;-35
2022/04/11 08:43:32;;;;;;;3.92;3.20;;;8.10;90.60;;;;;;5004623;28;20049;-35
2022/04/11 08:46:02;;;;;;;4.25;3.63;;;8.30;90.30;;;;;;5001392;28;20164;-35
2022/04/11 08:48:27;;;;;;;4.63;3.03;;;8.30;93.50;;;;;;5006080;28;20129;-35
2022/04/11 08:50:53;;;;;;;4.95;3.60;;;8.60;90.60;;;;;;5002645;28;20152;-34
2022/04/11 08:53:21;;;;;;;4.03;3.30;;;8.50;90.90;;;;;;5003918;28;20061;-34
2022/04/11 08:55:47;;;;;;;3.77;3.30;;;8.50;92.10;;;;;;5002948;28;20029;-36
2022/04/11 08:58:13;;;;;;;4.35;3.03;;;8.50;86.80;;;;;;5003381;28;20293;-35
2022/04/11 09:00:39;;;;;;;6.80;2.83;;;8.60;83.50;;;;;;4982736;28;20053;-34
2022/04/11 09:03:06;;;;;;;3.90;3.28;;;8.60;77.30;;;;;;4999764;28;20030;-35
2022/04/11 09:05:32;;;;;;;6.30;3.17;;;8.50;83.70;;;;;;5002790;28;20030;-34
2022/04/11 09:07:59;;;;;;;4.38;2.58;;;8.50;77.70;;;;;;4999602;28;20037;-34
2022/04/11 09:10:35;;;;;;;4.43;3.22;;;8.50;72.90;;;;;;5002120;28;20026;-36
2022/04/11 09:13:05;;;;;;;3.63;2.92;;;8.60;72.90;;;;;;5003619;28;20053;-35
2022/04/11 09:15:39;;;;;;;5.75;2.90;;;8.70;71.30;;;;;;5004165;28;20667;-35
2022/04/11 09:18:05;;;;;;;3.55;3.25;;;8.80;69.10;;;;;;5002628;28;20522;-34
2022/04/11 09:20:30;;;;;;;4.20;3.40;;;8.90;73.00;;;;;;5002956;28;20037;-35
2022/04/11 09:22:57;;;;;;;3.65;3.08;;;9.00;71.00;;;;;;5003629;28;20486;-33
2022/04/11 09:25:27;;;;;;;3.53;3.22;;;9.20;72.00;;;;;;5004562;28;20018;-34
2022/04/11 09:28:07;;;;;;;3.20;2.88;;;9.40;67.60;;;;;;5002891;28;20025;-34
2022/04/11 09:30:33;;;;;;;4.10;3.00;;;9.30;66.80;;;;;;5002817;28;20104;-35
2022/04/11 09:33:02;;;;;;;3.10;2.80;;;9.20;66.40;;;;;;5000659;28;20866;-35
2022/04/11 09:35:36;;;;;;;3.22;2.50;;;9.20;69.00;;;;;;5001565;28;20018;-35
2022/04/11 09:38:16;;;;;;;4.18;2.85;;;9.30;76.50;;;;;;5002950;28;20145;-35
2022/04/11 09:40:52;;;;;;;5.57;3.00;;;9.40;67.80;;;;;;5007101;28;20030;-34
2022/04/11 09:43:24;;;;;;;3.50;3.08;;;9.40;64.50;;;;;;5005735;28;20063;-35
2022/04/11 09:45:54;;;;;;;3.00;2.70;;;9.40;76.60;;;;;;5008407;28;20034;-34
2022/04/11 09:48:28;;;;;;;5.50;3.67;;;9.50;69.40;;;;;;5002689;28;20578;-34
2022/04/11 09:50:55;;;;;;;3.20;2.53;;;9.70;75.20;;;;;;5007645;28;20049;-35
2022/04/11 09:53:23;;;;;;;5.18;4.20;;;9.80;68.10;;;;;;5006059;28;20029;-36
2022/04/11 09:55:53;;;;;;;4.25;3.45;;;9.90;73.80;;;;;;5009951;28;20056;-35
2022/04/11 09:58:21;;;;;;;3.30;3.00;;;10.00;70.10;;;;;;5007478;28;20022;-34
2022/04/11 10:00:47;;;;;;;3.35;2.63;;;10.00;70.10;;;;;;5005018;28;20029;-35
2022/04/11 10:03:13;;;;;;;4.60;2.75;;;10.10;74.50;;;;;;5005222;28;20471;-35
2022/04/11 10:05:40;;;;;;;3.63;2.65;;;10.10;67.70;;;;;;5003766;28;20120;-35
2022/04/11 10:08:07;;;;;;;4.50;2.70;;;10.20;74.50;;;;;;5006700;28;20034;-36
2022/04/11 10:10:35;;;;;;;4.72;3.03;;;10.20;73.60;;;;;;5004653;28;20029;-36
2022/04/11 10:13:02;;;;;;;3.00;2.70;;;10.30;62.90;;;;;;5003567;28;20065;-35
2022/04/11 10:15:28;;;;;;;5.82;3.22;;;10.40;76.70;;;;;;5005463;28;20388;-35
2022/04/11 10:17:56;;;;;;;3.03;2.72;;;10.50;58.80;;;;;;5003712;28;20072;-34
2022/04/11 10:20:29;;;;;;;2.60;2.40;;;10.50;60.00;;;;;;5003592;28;20036;-35
2022/04/11 10:23:11;;;;;;;3.22;2.35;;;10.40;63.00;;;;;;5001662;28;20037;-35
2022/04/11 10:25:48;;;;;;;3.72;2.55;;;10.50;59.90;;;;;;5005513;28;20046;-34
2022/04/11 10:28:20;;;;;;;3.88;2.42;;;10.50;61.90;;;;;;5002897;28;20026;-35
2022/04/11 10:31:03;;;;;;;4.30;2.72;;;10.90;66.00;;;;;;5005074;28;20022;-35
2022/04/11 10:33:49;;;;;;;3.10;2.83;;;10.80;59.50;;;;;;5002938;28;20740;-36
2022/04/11 10:36:36;;;;;;;4.07;2.70;;;10.70;59.80;;;;;;5000339;28;20052;-34
2022/04/11 10:39:22;;;;;;;2.73;2.50;;;10.80;63.40;;;;;;5001429;28;20484;-35
2022/04/11 10:41:57;;;;;;;3.35;2.63;;;10.90;58.90;;;;;;4999442;28;20080;-35
2022/04/11 10:44:45;;;;;;;5.00;2.78;;;10.80;60.00;;;;;;5002743;28;20028;-36
2022/04/11 10:47:11;;;;;;;;;;;10.90;59.40;;;;;;5003672;28;20049;-36
2022/04/11 10:49:57;;;;;;;4.15;2.35;;;10.80;56.80;;;;;;4997393;28;19913;-35
2022/04/11 10:52:34;;;;;;;3.58;2.45;;;10.90;56.10;;;;;;4995136;28;20077;-36
2022/04/11 10:55:03;;;;;;;3.78;2.90;;;10.90;58.50;;;;;;4983045;28;20025;-34
2022/04/11 10:57:40;;;;;;;3.40;2.67;;;11.00;58.00;;;;;;5004556;28;20064;-35
2022/04/11 11:00:13;;;;;;;4.60;2.80;;;11.10;56.90;;;;;;5006249;28;20040;-35
2022/04/11 11:02:48;;;;;;;6.88;4.30;;;11.50;61.00;;;;;;5004835;28;20493;-33
2022/04/11 11:05:25;;;;;;;3.22;2.90;;;11.70;53.60;;;;;;5002902;28;20034;-33
2022/04/11 11:08:07;;;;;;;3.90;2.80;;;11.60;54.70;;;;;;5008566;28;20030;-35
2022/04/11 11:10:43;;;;;;;4.30;3.40;;;11.50;52.60;;;;;;5005109;28;20105;-35
2022/04/11 11:13:34;;;;;;;4.88;3.45;;;11.70;62.50;;;;;;5001691;28;20502;-35
2022/04/11 11:16:11;;;;;;;3.75;2.38;;;11.60;65.30;;;;;;5004585;28;20029;-35
2022/04/11 11:18:46;;;;;;;3.45;3.13;;;11.50;56.50;;;;;;5006354;28;20038;-35
2022/04/11 11:21:22;;;;;;;4.18;3.35;;;11.70;55.70;;;;;;5006531;28;20072;-36
2022/04/11 11:24:12;;;;;;;3.53;3.15;;;11.80;60.10;;;;;;5005864;28;20502;-35
2022/04/11 11:26:45;;;;;;;5.28;3.08;;;11.50;65.10;;;;;;5003033;28;20033;-35
2022/04/11 11:29:28;;;;;;;3.45;2.90;;;11.70;58.60;;;;;;5005028;28;20030;-35
2022/04/11 11:31:57;;;;;;;2.78;2.50;;;12.20;55.50;;;;;;5006892;28;20085;-37
2022/04/11 11:34:26;;;;;;;3.95;3.08;;;12.20;58.80;;;;;;5004150;28;20065;-35
2022/04/11 11:37:00;;;;;;;3.65;2.95;;;12.20;52.70;;;;;;5007430;28;20060;-35
2022/04/11 11:39:26;;;;;;;3.15;2.90;;;12.00;55.40;;;;;;5004337;28;20038;-34
2022/04/11 11:41:55;;;;;;;3.70;3.10;;;12.10;56.50;;;;;;5008340;28;20022;-35
2022/04/11 11:44:21;;;;;;;4.10;3.10;;;11.90;55.10;;;;;;5005221;28;20391;-35
2022/04/11 11:46:46;;;;;;;6.35;3.72;;;11.90;57.10;;;;;;5003737;28;20084;-35
2022/04/11 11:49:12;;;;;;;4.93;3.92;;;11.80;59.30;;;;;;5007680;28;20022;-36
2022/04/11 11:51:37;;;;;;;3.20;2.90;;;11.90;58.80;;;;;;5003797;28;20083;-35
2022/04/11 11:54:03;;;;;;;3.60;2.85;;;11.80;59.70;;;;;;5002750;28;20463;-35
2022/04/11 11:56:46;;;;;;;3.92;2.70;;;11.90;52.80;;;;;;5004289;28;20026;-35
2022/04/11 11:59:15;;;;;;;6.13;3.40;;;11.70;58.60;;;;;;5006226;28;21161;-35
2022/04/11 12:04:18;;;;;;;3.03;2.72;;;11.60;53.40;;;;;;5003734;28;20046;-33
2022/04/11 12:04:34;;;;;;;4.20;3.13;;;11.60;52.90;;;;;;5001877;28;20430;-35
2022/04/11 12:07:00;;;;;;;4.47;3.10;;;11.90;55.90;;;;;;5003524;28;21355;-35
2022/04/11 12:09:36;;;;;;;5.18;3.60;;;12.00;61.20;;;;;;5004845;28;20034;-35
2022/04/11 12:12:06;;;;;;;9.55;3.88;;;11.90;55.90;;;;;;5004803;28;20084;-34
2022/04/11 12:15:06;;;;;;;4.53;3.40;;;11.90;67.20;;;;;;5004548;28;20030;-35
2022/04/11 12:17:35;;;;;;;4.60;3.30;;;12.20;56.70;;;;;;5004166;28;20057;-33
2022/04/11 12:20:21;;;;;;;4.40;3.70;;;11.80;54.20;;;;;;5004401;28;20018;-36
2022/04/11 12:23:08;;;;;;;4.75;3.42;;;11.80;53.70;;;;;;5007262;28;20022;-35
2022/04/11 12:25:57;;;;;;;4.68;3.17;;;12.20;57.00;;;;;;5002442;28;20033;-35
2022/04/11 12:28:22;;;;;;;;;;;12.50;66.60;;;;;;5005407;28;20087;-35
2022/04/11 12:31:12;;;;;;;4.20;3.50;;;12.30;60.70;;;;;;5001479;28;19921;-36
2022/04/11 12:33:43;;;;;;;6.55;4.45;;;12.10;58.60;;;;;;5004453;28;20026;-35
2022/04/11 12:36:13;;;;;;;5.18;3.38;;;12.30;86.70;;;;;;5006002;28;20034;-35
2022/04/11 12:38:49;;;;;;;3.30;3.00;;;12.40;54.80;;;;;;5004161;28;20035;-34
2022/04/11 12:41:34;;;;;;;4.75;3.70;;;12.00;62.60;;;;;;5007564;28;20034;-35
2022/04/11 12:44:20;;;;;;;4.55;3.80;;;12.20;55.00;;;;;;5006302;28;20065;-34
2022/04/11 12:46:48;;;;;;;3.90;3.47;;;12.30;66.00;;;;;;5004400;28;20036;-35
2022/04/11 12:49:15;;;;;;;4.90;4.03;;;12.40;58.50;;;;;;5002254;28;20025;-34
2022/04/11 12:51:42;;;;;;;6.57;4.45;;;12.60;57.90;;;;;;5007855;28;20052;-35
2022/04/11 12:54:10;;;;;;;6.07;4.30;;;12.50;59.60;;;;;;5004270;28;21304;-35
2022/04/11 12:56:46;;;;;;;5.80;4.18;;;12.50;61.10;;;;;;5004014;28;20033;-34
2022/04/11 12:59:32;;;;;;;5.03;4.53;;;12.40;62.90;;;;;;5005978;28;20022;-34